sensor_id;sensor_type;location;lat;lon;timestamp;temperature;humidity
34829;DHT22;21042;47.620;12.188;2022-10-30T00:00:23;11.40;99.90
34829;DHT22;21042;47.620;12.188;2022-10-30T00:02:50;11.30;99.90
34829;DHT22;21042;47.620;12.188;2022-10-30T00:05:17;11.30;99.90
34829;DHT22;21042;47.620;12.188;2022-10-30T00:07:49;11.10;99.90
34829;DHT22;21042;47.620;12.188;2022-10-30T00:10:16;11.00;99.90
34829;DHT22;21042;47.620;12.188;2022-10-30T00:12:43;11.00;99.90
34829;DHT22;21042;47.620;12.188;2022-10-30T00:15:10;10.90;99.90
34829;DHT22;21042;47.620;12.188;2022-10-30T00:17:37;10.90;99.90
34829;DHT22;21042;47.620;12.188;2022-10-30T00:20:04;10.90;99.90
34829;DHT22;21042;47.620;12.188;2022-10-30T00:22:31;11.00;99.90
34829;DHT22;21042;47.620;12.188;2022-10-30T00:24:58;11.00;99.90
34829;DHT22;21042;47.620;12.188;2022-10-30T00:27:25;11.10;99.90
34829;DHT22;21042;47.620;12.188;2022-10-30T00:29:52;11.20;99.90
34829;DHT22;21042;47.620;12.188;2022-10-30T00:32:19;11.20;99.90
34829;DHT22;21042;47.620;12.188;2022-10-30T00:34:45;11.20;99.90
34829;DHT22;21042;47.620;12.188;2022-10-30T00:37:12;11.20;99.90
34829;DHT22;21042;47.620;12.188;2022-10-30T00:39:39;11.30;99.90
34829;DHT22;21042;47.620;12.188;2022-10-30T00:42:13;11.30;99.90
34829;DHT22;21042;47.620;12.188;2022-10-30T00:47:19;11.20;99.90
34829;DHT22;21042;47.620;12.188;2022-10-30T00:49:56;11.30;99.90
34829;DHT22;21042;47.620;12.188;2022-10-30T00:52:27;11.20;99.90
34829;DHT22;21042;47.620;12.188;2022-10-30T00:54:56;11.20;99.90
34829;DHT22;21042;47.620;12.188;2022-10-30T00:57:24;11.20;99.90
34829;DHT22;21042;47.620;12.188;2022-10-30T00:59:51;11.20;99.90
34829;DHT22;21042;47.620;12.188;2022-10-30T01:02:19;11.20;99.90
34829;DHT22;21042;47.620;12.188;2022-10-30T01:04:47;11.30;99.90
34829;DHT22;21042;47.620;12.188;2022-10-30T01:07:16;11.20;99.90
34829;DHT22;21042;47.620;12.188;2022-10-30T01:09:44;11.20;99.90
34829;DHT22;21042;47.620;12.188;2022-10-30T01:12:12;11.10;99.90
34829;DHT22;21042;47.620;12.188;2022-10-30T01:14:43;11.30;99.90
34829;DHT22;21042;47.620;12.188;2022-10-30T01:20:14;11.10;99.90
34829;DHT22;21042;47.620;12.188;2022-10-30T01:33:49;11.10;99.90
34829;DHT22;21042;47.620;12.188;2022-10-30T01:36:40;11.00;99.90
34829;DHT22;21042;47.620;12.188;2022-10-30T01:39:14;11.00;99.90
34829;DHT22;21042;47.620;12.188;2022-10-30T01:41:42;11.00;99.90
34829;DHT22;21042;47.620;12.188;2022-10-30T01:44:17;10.90;99.90
34829;DHT22;21042;47.620;12.188;2022-10-30T01:47:22;10.90;99.90
34829;DHT22;21042;47.620;12.188;2022-10-30T01:50:08;10.90;99.90
34829;DHT22;21042;47.620;12.188;2022-10-30T01:52:48;10.80;99.90
34829;DHT22;21042;47.620;12.188;2022-10-30T01:55:28;10.80;99.90
34829;DHT22;21042;47.620;12.188;2022-10-30T01:58:07;10.80;99.90
34829;DHT22;21042;47.620;12.188;2022-10-30T02:00:42;10.80;99.90
34829;DHT22;21042;47.620;12.188;2022-10-30T02:03:12;10.80;99.90
34829;DHT22;21042;47.620;12.188;2022-10-30T02:05:50;10.70;99.90
34829;DHT22;21042;47.620;12.188;2022-10-30T02:08:19;10.80;99.90
34829;DHT22;21042;47.620;12.188;2022-10-30T02:10:48;10.80;99.90
34829;DHT22;21042;47.620;12.188;2022-10-30T02:13:27;10.80;99.90
34829;DHT22;21042;47.620;12.188;2022-10-30T02:15:54;10.80;99.90
34829;DHT22;21042;47.620;12.188;2022-10-30T02:18:22;10.80;99.90
34829;DHT22;21042;47.620;12.188;2022-10-30T02:20:50;11.20;99.90
34829;DHT22;21042;47.620;12.188;2022-10-30T02:23:17;10.80;99.90
34829;DHT22;21042;47.620;12.188;2022-10-30T02:25:45;10.80;99.90
34829;DHT22;21042;47.620;12.188;2022-10-30T02:28:11;10.80;99.90
34829;DHT22;21042;47.620;12.188;2022-10-30T02:30:39;10.70;99.90
34829;DHT22;21042;47.620;12.188;2022-10-30T02:33:09;10.60;99.90
34829;DHT22;21042;47.620;12.188;2022-10-30T02:35:36;10.60;99.90
34829;DHT22;21042;47.620;12.188;2022-10-30T02:38:31;10.50;99.90
34829;DHT22;21042;47.620;12.188;2022-10-30T02:40:58;10.50;99.90
34829;DHT22;21042;47.620;12.188;2022-10-30T02:43:24;10.50;99.90
34829;DHT22;21042;47.620;12.188;2022-10-30T02:45:51;10.50;99.90
34829;DHT22;21042;47.620;12.188;2022-10-30T02:48:19;10.40;99.90
34829;DHT22;21042;47.620;12.188;2022-10-30T02:50:46;10.40;99.90
34829;DHT22;21042;47.620;12.188;2022-10-30T02:53:13;10.40;99.90
34829;DHT22;21042;47.620;12.188;2022-10-30T02:55:40;10.40;99.90
34829;DHT22;21042;47.620;12.188;2022-10-30T02:58:08;10.50;99.90
34829;DHT22;21042;47.620;12.188;2022-10-30T03:00:35;10.50;99.90
34829;DHT22;21042;47.620;12.188;2022-10-30T03:03:02;10.40;99.90
34829;DHT22;21042;47.620;12.188;2022-10-30T03:05:29;10.50;99.90
34829;DHT22;21042;47.620;12.188;2022-10-30T03:07:56;10.50;99.90
34829;DHT22;21042;47.620;12.188;2022-10-30T03:10:23;10.50;99.90
34829;DHT22;21042;47.620;12.188;2022-10-30T03:12:51;10.60;99.90
34829;DHT22;21042;47.620;12.188;2022-10-30T03:15:17;10.60;99.90
34829;DHT22;21042;47.620;12.188;2022-10-30T03:17:44;10.70;99.90
34829;DHT22;21042;47.620;12.188;2022-10-30T03:20:11;10.80;99.90
34829;DHT22;21042;47.620;12.188;2022-10-30T03:22:38;10.70;99.90
34829;DHT22;21042;47.620;12.188;2022-10-30T03:25:05;10.80;99.90
34829;DHT22;21042;47.620;12.188;2022-10-30T03:27:32;10.70;99.90
34829;DHT22;21042;47.620;12.188;2022-10-30T03:29:59;10.70;99.90
34829;DHT22;21042;47.620;12.188;2022-10-30T03:32:27;10.70;99.90
34829;DHT22;21042;47.620;12.188;2022-10-30T03:34:54;10.70;99.90
34829;DHT22;21042;47.620;12.188;2022-10-30T03:37:20;10.60;99.90
34829;DHT22;21042;47.620;12.188;2022-10-30T03:39:47;10.60;99.90
34829;DHT22;21042;47.620;12.188;2022-10-30T03:42:14;10.60;99.90
34829;DHT22;21042;47.620;12.188;2022-10-30T03:44:41;10.50;99.90
34829;DHT22;21042;47.620;12.188;2022-10-30T03:47:08;10.50;99.90
34829;DHT22;21042;47.620;12.188;2022-10-30T03:49:42;10.50;99.90
34829;DHT22;21042;47.620;12.188;2022-10-30T03:52:12;10.50;99.90
34829;DHT22;21042;47.620;12.188;2022-10-30T03:54:39;10.50;99.90
34829;DHT22;21042;47.620;12.188;2022-10-30T03:57:07;10.50;99.90
34829;DHT22;21042;47.620;12.188;2022-10-30T03:59:52;10.50;99.90
34829;DHT22;21042;47.620;12.188;2022-10-30T04:02:46;10.60;99.90
34829;DHT22;21042;47.620;12.188;2022-10-30T04:05:16;10.60;99.90
34829;DHT22;21042;47.620;12.188;2022-10-30T04:07:44;10.60;99.90
34829;DHT22;21042;47.620;12.188;2022-10-30T04:10:11;10.60;99.90
34829;DHT22;21042;47.620;12.188;2022-10-30T04:12:38;10.50;99.90
34829;DHT22;21042;47.620;12.188;2022-10-30T04:15:06;10.50;99.90
34829;DHT22;21042;47.620;12.188;2022-10-30T04:17:34;10.50;99.90
34829;DHT22;21042;47.620;12.188;2022-10-30T04:20:03;10.40;99.90
34829;DHT22;21042;47.620;12.188;2022-10-30T04:22:30;10.40;99.90
34829;DHT22;21042;47.620;12.188;2022-10-30T04:24:57;10.40;99.90
34829;DHT22;21042;47.620;12.188;2022-10-30T04:27:24;10.40;99.90
34829;DHT22;21042;47.620;12.188;2022-10-30T04:29:51;10.40;99.90
34829;DHT22;21042;47.620;12.188;2022-10-30T04:32:18;10.30;99.90
34829;DHT22;21042;47.620;12.188;2022-10-30T04:34:46;10.30;99.90
34829;DHT22;21042;47.620;12.188;2022-10-30T04:37:13;10.20;99.90
34829;DHT22;21042;47.620;12.188;2022-10-30T04:39:40;10.20;99.90
34829;DHT22;21042;47.620;12.188;2022-10-30T04:42:16;10.20;99.90
34829;DHT22;21042;47.620;12.188;2022-10-30T04:44:43;10.10;99.90
34829;DHT22;21042;47.620;12.188;2022-10-30T04:47:10;10.10;99.90
34829;DHT22;21042;47.620;12.188;2022-10-30T04:49:36;10.10;99.90
34829;DHT22;21042;47.620;12.188;2022-10-30T04:52:03;10.10;99.90
34829;DHT22;21042;47.620;12.188;2022-10-30T04:54:30;10.10;99.90
34829;DHT22;21042;47.620;12.188;2022-10-30T04:56:57;10.10;99.90
34829;DHT22;21042;47.620;12.188;2022-10-30T04:59:24;10.00;99.90
34829;DHT22;21042;47.620;12.188;2022-10-30T05:01:52;10.00;99.90
34829;DHT22;21042;47.620;12.188;2022-10-30T05:04:19;10.00;99.90
34829;DHT22;21042;47.620;12.188;2022-10-30T05:06:47;10.00;99.90
34829;DHT22;21042;47.620;12.188;2022-10-30T05:09:15;10.00;99.90
34829;DHT22;21042;47.620;12.188;2022-10-30T05:11:42;10.00;99.90
34829;DHT22;21042;47.620;12.188;2022-10-30T05:14:08;10.10;99.90
34829;DHT22;21042;47.620;12.188;2022-10-30T05:16:36;10.20;99.90
34829;DHT22;21042;47.620;12.188;2022-10-30T05:19:03;10.20;99.90
34829;DHT22;21042;47.620;12.188;2022-10-30T05:21:32;10.20;99.90
34829;DHT22;21042;47.620;12.188;2022-10-30T05:23:59;10.20;99.90
34829;DHT22;21042;47.620;12.188;2022-10-30T05:26:28;10.20;99.90
34829;DHT22;21042;47.620;12.188;2022-10-30T05:28:55;10.20;99.90
34829;DHT22;21042;47.620;12.188;2022-10-30T05:31:22;10.20;99.90
34829;DHT22;21042;47.620;12.188;2022-10-30T05:34:04;10.20;99.90
34829;DHT22;21042;47.620;12.188;2022-10-30T05:36:34;10.10;99.90
34829;DHT22;21042;47.620;12.188;2022-10-30T05:39:02;10.20;99.90
34829;DHT22;21042;47.620;12.188;2022-10-30T05:41:35;10.20;99.90
34829;DHT22;21042;47.620;12.188;2022-10-30T05:44:02;10.10;99.90
34829;DHT22;21042;47.620;12.188;2022-10-30T05:46:31;10.10;99.90
34829;DHT22;21042;47.620;12.188;2022-10-30T05:49:08;10.10;99.90
34829;DHT22;21042;47.620;12.188;2022-10-30T05:51:35;10.00;99.90
34829;DHT22;21042;47.620;12.188;2022-10-30T05:54:08;10.00;99.90
34829;DHT22;21042;47.620;12.188;2022-10-30T05:56:40;10.00;99.90
34829;DHT22;21042;47.620;12.188;2022-10-30T05:59:06;9.90;99.90
34829;DHT22;21042;47.620;12.188;2022-10-30T06:01:33;9.90;99.90
34829;DHT22;21042;47.620;12.188;2022-10-30T06:04:04;9.90;99.90
34829;DHT22;21042;47.620;12.188;2022-10-30T06:06:31;9.80;99.90
34829;DHT22;21042;47.620;12.188;2022-10-30T06:08:58;9.90;99.90
34829;DHT22;21042;47.620;12.188;2022-10-30T06:11:39;9.80;99.90
34829;DHT22;21042;47.620;12.188;2022-10-30T06:14:08;9.90;99.90
34829;DHT22;21042;47.620;12.188;2022-10-30T06:16:39;9.80;99.90
34829;DHT22;21042;47.620;12.188;2022-10-30T06:19:15;9.90;99.90
34829;DHT22;21042;47.620;12.188;2022-10-30T06:21:45;9.90;99.90
34829;DHT22;21042;47.620;12.188;2022-10-30T06:24:32;9.90;99.90
34829;DHT22;21042;47.620;12.188;2022-10-30T06:27:22;9.90;99.90
34829;DHT22;21042;47.620;12.188;2022-10-30T06:29:49;9.90;99.90
34829;DHT22;21042;47.620;12.188;2022-10-30T06:32:16;9.90;99.90
34829;DHT22;21042;47.620;12.188;2022-10-30T06:34:44;9.90;99.90
34829;DHT22;21042;47.620;12.188;2022-10-30T06:37:12;9.90;99.90
34829;DHT22;21042;47.620;12.188;2022-10-30T06:39:39;9.90;99.90
34829;DHT22;21042;47.620;12.188;2022-10-30T06:42:26;9.90;99.90
34829;DHT22;21042;47.620;12.188;2022-10-30T06:45:04;9.90;99.90
34829;DHT22;21042;47.620;12.188;2022-10-30T06:47:36;9.90;99.90
34829;DHT22;21042;47.620;12.188;2022-10-30T06:50:04;9.90;99.90
34829;DHT22;21042;47.620;12.188;2022-10-30T06:52:31;10.00;99.90
34829;DHT22;21042;47.620;12.188;2022-10-30T06:54:59;10.00;99.90
34829;DHT22;21042;47.620;12.188;2022-10-30T06:57:53;10.00;99.90
34829;DHT22;21042;47.620;12.188;2022-10-30T07:00:41;10.10;99.90
34829;DHT22;21042;47.620;12.188;2022-10-30T07:03:34;10.20;99.90
34829;DHT22;21042;47.620;12.188;2022-10-30T07:06:01;10.20;99.90
34829;DHT22;21042;47.620;12.188;2022-10-30T07:08:29;10.20;99.90
34829;DHT22;21042;47.620;12.188;2022-10-30T07:10:56;10.30;99.90
34829;DHT22;21042;47.620;12.188;2022-10-30T07:13:24;10.30;99.90
34829;DHT22;21042;47.620;12.188;2022-10-30T07:16:13;10.30;99.90
34829;DHT22;21042;47.620;12.188;2022-10-30T07:18:43;10.30;99.90
34829;DHT22;21042;47.620;12.188;2022-10-30T07:21:09;10.30;99.90
34829;DHT22;21042;47.620;12.188;2022-10-30T07:23:36;10.30;99.90
34829;DHT22;21042;47.620;12.188;2022-10-30T07:26:15;10.40;99.90
34829;DHT22;21042;47.620;12.188;2022-10-30T07:28:44;10.50;99.90
34829;DHT22;21042;47.620;12.188;2022-10-30T07:31:37;10.60;99.90
34829;DHT22;21042;47.620;12.188;2022-10-30T07:34:47;10.80;99.90
34829;DHT22;21042;47.620;12.188;2022-10-30T07:37:33;11.00;99.90
34829;DHT22;21042;47.620;12.188;2022-10-30T07:40:09;11.20;99.90
34829;DHT22;21042;47.620;12.188;2022-10-30T07:42:58;11.40;99.90
34829;DHT22;21042;47.620;12.188;2022-10-30T07:45:55;11.60;99.90
34829;DHT22;21042;47.620;12.188;2022-10-30T07:48:24;11.60;99.90
34829;DHT22;21042;47.620;12.188;2022-10-30T07:51:20;11.70;99.90
34829;DHT22;21042;47.620;12.188;2022-10-30T07:53:48;11.70;99.90
34829;DHT22;21042;47.620;12.188;2022-10-30T07:56:15;11.90;99.90
34829;DHT22;21042;47.620;12.188;2022-10-30T07:58:51;12.00;99.90
34829;DHT22;21042;47.620;12.188;2022-10-30T08:01:46;12.10;99.90
34829;DHT22;21042;47.620;12.188;2022-10-30T08:04:44;12.20;99.90
34829;DHT22;21042;47.620;12.188;2022-10-30T08:07:33;12.30;99.90
34829;DHT22;21042;47.620;12.188;2022-10-30T08:10:00;12.60;99.90
34829;DHT22;21042;47.620;12.188;2022-10-30T08:12:27;12.50;99.90
34829;DHT22;21042;47.620;12.188;2022-10-30T08:14:54;12.60;99.90
34829;DHT22;21042;47.620;12.188;2022-10-30T08:17:21;12.50;99.90
34829;DHT22;21042;47.620;12.188;2022-10-30T08:19:48;12.60;99.90
34829;DHT22;21042;47.620;12.188;2022-10-30T08:22:16;12.60;99.90
34829;DHT22;21042;47.620;12.188;2022-10-30T08:24:49;12.60;99.90
34829;DHT22;21042;47.620;12.188;2022-10-30T08:27:16;12.60;99.90
34829;DHT22;21042;47.620;12.188;2022-10-30T08:29:42;12.70;99.90
34829;DHT22;21042;47.620;12.188;2022-10-30T08:32:09;12.90;99.90
34829;DHT22;21042;47.620;12.188;2022-10-30T08:35:11;12.90;99.90
34829;DHT22;21042;47.620;12.188;2022-10-30T08:38:23;13.10;99.90
34829;DHT22;21042;47.620;12.188;2022-10-30T08:41:04;13.20;99.90
34829;DHT22;21042;47.620;12.188;2022-10-30T08:43:35;13.30;99.90
34829;DHT22;21042;47.620;12.188;2022-10-30T08:46:04;13.40;99.90
34829;DHT22;21042;47.620;12.188;2022-10-30T08:48:31;13.60;99.90
34829;DHT22;21042;47.620;12.188;2022-10-30T08:50:58;13.60;99.90
34829;DHT22;21042;47.620;12.188;2022-10-30T08:53:34;13.80;99.90
34829;DHT22;21042;47.620;12.188;2022-10-30T08:56:05;13.90;99.90
34829;DHT22;21042;47.620;12.188;2022-10-30T08:58:50;14.00;99.90
34829;DHT22;21042;47.620;12.188;2022-10-30T09:01:17;14.10;99.90
34829;DHT22;21042;47.620;12.188;2022-10-30T09:04:10;14.20;99.90
34829;DHT22;21042;47.620;12.188;2022-10-30T09:06:59;14.30;99.90
34829;DHT22;21042;47.620;12.188;2022-10-30T09:09:47;14.40;99.90
34829;DHT22;21042;47.620;12.188;2022-10-30T09:12:15;14.60;99.90
34829;DHT22;21042;47.620;12.188;2022-10-30T09:14:44;14.50;99.90
34829;DHT22;21042;47.620;12.188;2022-10-30T09:17:11;14.60;99.90
34829;DHT22;21042;47.620;12.188;2022-10-30T09:19:42;14.70;99.90
34829;DHT22;21042;47.620;12.188;2022-10-30T09:22:12;14.70;99.90
34829;DHT22;21042;47.620;12.188;2022-10-30T09:24:41;14.90;99.90
34829;DHT22;21042;47.620;12.188;2022-10-30T09:27:26;14.90;99.90
34829;DHT22;21042;47.620;12.188;2022-10-30T09:29:55;15.00;99.90
34829;DHT22;21042;47.620;12.188;2022-10-30T09:32:26;15.20;99.90
34829;DHT22;21042;47.620;12.188;2022-10-30T09:35:01;15.30;99.90
34829;DHT22;21042;47.620;12.188;2022-10-30T09:37:38;15.50;99.90
34829;DHT22;21042;47.620;12.188;2022-10-30T09:40:30;15.50;99.90
34829;DHT22;21042;47.620;12.188;2022-10-30T09:51:41;16.00;99.90
34829;DHT22;21042;47.620;12.188;2022-10-30T10:02:33;16.40;99.90
34829;DHT22;21042;47.620;12.188;2022-10-30T10:05:44;16.40;99.90
34829;DHT22;21042;47.620;12.188;2022-10-30T10:08:33;16.50;99.90
34829;DHT22;21042;47.620;12.188;2022-10-30T10:11:30;16.70;99.90
34829;DHT22;21042;47.620;12.188;2022-10-30T10:14:03;16.80;99.90
34829;DHT22;21042;47.620;12.188;2022-10-30T10:16:38;17.00;99.90
34829;DHT22;21042;47.620;12.188;2022-10-30T10:19:21;17.30;99.90
34829;DHT22;21042;47.620;12.188;2022-10-30T10:21:57;17.40;99.90
34829;DHT22;21042;47.620;12.188;2022-10-30T10:24:34;17.40;99.90
34829;DHT22;21042;47.620;12.188;2022-10-30T10:51:32;18.00;99.90
34829;DHT22;21042;47.620;12.188;2022-10-30T10:54:08;18.00;99.90
34829;DHT22;21042;47.620;12.188;2022-10-30T10:56:39;18.10;99.90
34829;DHT22;21042;47.620;12.188;2022-10-30T10:59:24;18.20;99.90
34829;DHT22;21042;47.620;12.188;2022-10-30T11:04:38;18.40;99.90
34829;DHT22;21042;47.620;12.188;2022-10-30T11:07:21;18.50;99.90
34829;DHT22;21042;47.620;12.188;2022-10-30T11:09:52;18.60;99.90
34829;DHT22;21042;47.620;12.188;2022-10-30T11:12:24;18.70;99.90
34829;DHT22;21042;47.620;12.188;2022-10-30T11:15:00;18.80;99.90
34829;DHT22;21042;47.620;12.188;2022-10-30T11:17:38;18.90;99.90
34829;DHT22;21042;47.620;12.188;2022-10-30T11:20:16;19.00;99.90
34829;DHT22;21042;47.620;12.188;2022-10-30T11:22:49;19.20;99.90
34829;DHT22;21042;47.620;12.188;2022-10-30T11:25:24;19.20;99.90
34829;DHT22;21042;47.620;12.188;2022-10-30T11:27:59;19.30;99.90
34829;DHT22;21042;47.620;12.188;2022-10-30T11:30:27;19.40;99.90
34829;DHT22;21042;47.620;12.188;2022-10-30T11:32:55;19.50;99.90
34829;DHT22;21042;47.620;12.188;2022-10-30T11:35:23;19.50;99.90
34829;DHT22;21042;47.620;12.188;2022-10-30T11:38:10;19.60;99.90
34829;DHT22;21042;47.620;12.188;2022-10-30T11:40:38;19.70;99.90
34829;DHT22;21042;47.620;12.188;2022-10-30T11:43:08;19.70;99.90
34829;DHT22;21042;47.620;12.188;2022-10-30T11:45:39;19.70;99.90
34829;DHT22;21042;47.620;12.188;2022-10-30T11:48:44;19.80;99.90
34829;DHT22;21042;47.620;12.188;2022-10-30T11:51:04;19.90;99.90
34829;DHT22;21042;47.620;12.188;2022-10-30T11:56:01;20.00;99.90
34829;DHT22;21042;47.620;12.188;2022-10-30T11:58:30;20.10;99.90
34829;DHT22;21042;47.620;12.188;2022-10-30T12:01:04;20.10;99.90
34829;DHT22;21042;47.620;12.188;2022-10-30T12:03:37;20.10;99.90
34829;DHT22;21042;47.620;12.188;2022-10-30T12:06:26;20.30;99.90
34829;DHT22;21042;47.620;12.188;2022-10-30T12:09:13;20.20;99.90
34829;DHT22;21042;47.620;12.188;2022-10-30T12:11:42;20.30;99.90
34829;DHT22;21042;47.620;12.188;2022-10-30T12:14:20;20.40;99.90
34829;DHT22;21042;47.620;12.188;2022-10-30T12:16:50;20.40;99.90
34829;DHT22;21042;47.620;12.188;2022-10-30T12:19:19;20.50;99.90
34829;DHT22;21042;47.620;12.188;2022-10-30T12:21:51;20.50;99.90
34829;DHT22;21042;47.620;12.188;2022-10-30T12:24:26;20.50;99.90
34829;DHT22;21042;47.620;12.188;2022-10-30T12:26:54;20.60;99.90
34829;DHT22;21042;47.620;12.188;2022-10-30T12:29:36;20.50;99.90
34829;DHT22;21042;47.620;12.188;2022-10-30T12:32:30;20.80;99.90
34829;DHT22;21042;47.620;12.188;2022-10-30T12:37:55;20.80;99.90
34829;DHT22;21042;47.620;12.188;2022-10-30T12:40:28;20.80;99.90
34829;DHT22;21042;47.620;12.188;2022-10-30T12:43:10;20.90;99.90
34829;DHT22;21042;47.620;12.188;2022-10-30T12:45:41;20.90;99.90
34829;DHT22;21042;47.620;12.188;2022-10-30T12:48:32;20.90;99.90
34829;DHT22;21042;47.620;12.188;2022-10-30T12:51:16;20.90;99.90
34829;DHT22;21042;47.620;12.188;2022-10-30T12:56:26;20.80;99.90
34829;DHT22;21042;47.620;12.188;2022-10-30T13:01:58;21.00;99.90
34829;DHT22;21042;47.620;12.188;2022-10-30T13:04:30;21.00;99.90
34829;DHT22;21042;47.620;12.188;2022-10-30T13:07:14;21.10;99.90
34829;DHT22;21042;47.620;12.188;2022-10-30T13:12:40;21.10;99.90
34829;DHT22;21042;47.620;12.188;2022-10-30T13:15:26;21.20;99.90
34829;DHT22;21042;47.620;12.188;2022-10-30T13:17:59;21.20;99.90
34829;DHT22;21042;47.620;12.188;2022-10-30T13:20:31;21.20;99.90
34829;DHT22;21042;47.620;12.188;2022-10-30T13:23:04;21.20;99.90
34829;DHT22;21042;47.620;12.188;2022-10-30T13:26:00;21.20;99.90
34829;DHT22;21042;47.620;12.188;2022-10-30T13:28:38;21.30;99.90
34829;DHT22;21042;47.620;12.188;2022-10-30T13:31:22;21.30;99.90
34829;DHT22;21042;47.620;12.188;2022-10-30T13:34:01;21.30;99.90
34829;DHT22;21042;47.620;12.188;2022-10-30T13:36:50;21.30;99.90
34829;DHT22;21042;47.620;12.188;2022-10-30T13:39:57;21.40;99.90
34829;DHT22;21042;47.620;12.188;2022-10-30T13:42:33;21.40;99.90
34829;DHT22;21042;47.620;12.188;2022-10-30T13:45:34;21.50;99.90
34829;DHT22;21042;47.620;12.188;2022-10-30T13:54:29;21.60;99.90
34829;DHT22;21042;47.620;12.188;2022-10-30T13:57:13;21.50;99.90
34829;DHT22;21042;47.620;12.188;2022-10-30T13:59:57;21.40;99.90
34829;DHT22;21042;47.620;12.188;2022-10-30T14:05:35;21.40;99.90
34829;DHT22;21042;47.620;12.188;2022-10-30T14:11:05;21.40;99.90
34829;DHT22;21042;47.620;12.188;2022-10-30T14:13:45;21.40;99.90
34829;DHT22;21042;47.620;12.188;2022-10-30T14:16:43;21.30;99.90
34829;DHT22;21042;47.620;12.188;2022-10-30T14:19:15;21.30;99.90
34829;DHT22;21042;47.620;12.188;2022-10-30T14:21:55;21.20;99.90
34829;DHT22;21042;47.620;12.188;2022-10-30T14:24:27;21.10;99.90
34829;DHT22;21042;47.620;12.188;2022-10-30T14:27:08;21.00;99.90
34829;DHT22;21042;47.620;12.188;2022-10-30T14:29:38;20.90;99.90
34829;DHT22;21042;47.620;12.188;2022-10-30T14:37:53;20.60;99.90
34829;DHT22;21042;47.620;12.188;2022-10-30T14:44:59;20.80;99.90
34829;DHT22;21042;47.620;12.188;2022-10-30T14:53:33;20.60;99.90
34829;DHT22;21042;47.620;12.188;2022-10-30T14:59:29;20.40;99.90
34829;DHT22;21042;47.620;12.188;2022-10-30T15:04:58;19.80;99.90
34829;DHT22;21042;47.620;12.188;2022-10-30T15:07:43;19.60;99.90
34829;DHT22;21042;47.620;12.188;2022-10-30T15:10:16;19.40;99.90
34829;DHT22;21042;47.620;12.188;2022-10-30T15:15:42;18.90;99.90
34829;DHT22;21042;47.620;12.188;2022-10-30T15:18:14;18.80;99.90
34829;DHT22;21042;47.620;12.188;2022-10-30T15:20:42;18.60;99.90
34829;DHT22;21042;47.620;12.188;2022-10-30T15:23:17;18.60;99.90
34829;DHT22;21042;47.620;12.188;2022-10-30T15:25:48;18.40;99.90
34829;DHT22;21042;47.620;12.188;2022-10-30T15:28:22;18.30;99.90
34829;DHT22;21042;47.620;12.188;2022-10-30T15:31:05;18.20;99.90
34829;DHT22;21042;47.620;12.188;2022-10-30T15:33:35;18.20;99.90
34829;DHT22;21042;47.620;12.188;2022-10-30T15:36:04;18.00;99.90
34829;DHT22;21042;47.620;12.188;2022-10-30T15:38:31;17.90;99.90
34829;DHT22;21042;47.620;12.188;2022-10-30T15:41:01;17.80;99.90
34829;DHT22;21042;47.620;12.188;2022-10-30T15:43:31;17.60;99.90
34829;DHT22;21042;47.620;12.188;2022-10-30T15:45:59;17.50;99.90
34829;DHT22;21042;47.620;12.188;2022-10-30T15:48:33;17.50;99.90
34829;DHT22;21042;47.620;12.188;2022-10-30T15:53:47;17.20;99.90
34829;DHT22;21042;47.620;12.188;2022-10-30T15:56:28;17.10;99.90
34829;DHT22;21042;47.620;12.188;2022-10-30T15:59:04;17.00;99.90
34829;DHT22;21042;47.620;12.188;2022-10-30T16:01:32;17.00;99.90
34829;DHT22;21042;47.620;12.188;2022-10-30T16:04:00;16.90;99.90
34829;DHT22;21042;47.620;12.188;2022-10-30T16:06:29;16.90;99.90
34829;DHT22;21042;47.620;12.188;2022-10-30T16:08:57;16.80;99.90
34829;DHT22;21042;47.620;12.188;2022-10-30T16:11:25;16.70;99.90
34829;DHT22;21042;47.620;12.188;2022-10-30T16:13:52;16.70;99.90
34829;DHT22;21042;47.620;12.188;2022-10-30T16:16:26;16.60;99.90
34829;DHT22;21042;47.620;12.188;2022-10-30T16:18:57;16.60;99.90
34829;DHT22;21042;47.620;12.188;2022-10-30T16:21:25;16.50;99.90
34829;DHT22;21042;47.620;12.188;2022-10-30T16:23:58;16.50;99.90
34829;DHT22;21042;47.620;12.188;2022-10-30T16:26:36;16.50;99.90
34829;DHT22;21042;47.620;12.188;2022-10-30T16:31:42;16.40;99.90
34829;DHT22;21042;47.620;12.188;2022-10-30T16:34:12;16.30;99.90
34829;DHT22;21042;47.620;12.188;2022-10-30T16:36:42;16.20;99.90
34829;DHT22;21042;47.620;12.188;2022-10-30T16:39:13;16.00;99.90
34829;DHT22;21042;47.620;12.188;2022-10-30T16:41:41;16.10;99.90
34829;DHT22;21042;47.620;12.188;2022-10-30T16:44:19;16.00;99.90
34829;DHT22;21042;47.620;12.188;2022-10-30T16:46:54;16.00;99.90
34829;DHT22;21042;47.620;12.188;2022-10-30T16:49:23;16.00;99.90
34829;DHT22;21042;47.620;12.188;2022-10-30T16:51:59;16.10;99.90
34829;DHT22;21042;47.620;12.188;2022-10-30T16:54:34;16.00;99.90
34829;DHT22;21042;47.620;12.188;2022-10-30T16:57:03;16.00;99.90
34829;DHT22;21042;47.620;12.188;2022-10-30T16:59:36;15.90;99.90
34829;DHT22;21042;47.620;12.188;2022-10-30T17:02:17;15.90;99.90
34829;DHT22;21042;47.620;12.188;2022-10-30T17:04:46;15.90;99.90
34829;DHT22;21042;47.620;12.188;2022-10-30T17:07:21;15.80;99.90
34829;DHT22;21042;47.620;12.188;2022-10-30T17:09:50;15.80;99.90
34829;DHT22;21042;47.620;12.188;2022-10-30T17:17:30;15.70;99.90
34829;DHT22;21042;47.620;12.188;2022-10-30T17:19:59;15.70;99.90
34829;DHT22;21042;47.620;12.188;2022-10-30T17:22:27;15.70;99.90
34829;DHT22;21042;47.620;12.188;2022-10-30T17:24:54;15.70;99.90
34829;DHT22;21042;47.620;12.188;2022-10-30T17:27:26;15.60;99.90
34829;DHT22;21042;47.620;12.188;2022-10-30T17:29:53;15.60;99.90
34829;DHT22;21042;47.620;12.188;2022-10-30T17:32:21;15.60;99.90
34829;DHT22;21042;47.620;12.188;2022-10-30T17:35:16;15.50;99.90
34829;DHT22;21042;47.620;12.188;2022-10-30T17:37:41;15.50;99.90
34829;DHT22;21042;47.620;12.188;2022-10-30T17:40:10;15.40;99.90
34829;DHT22;21042;47.620;12.188;2022-10-30T17:42:37;15.40;99.90
34829;DHT22;21042;47.620;12.188;2022-10-30T17:45:11;15.30;99.90
34829;DHT22;21042;47.620;12.188;2022-10-30T17:47:38;15.30;99.90
34829;DHT22;21042;47.620;12.188;2022-10-30T17:50:06;15.30;99.90
34829;DHT22;21042;47.620;12.188;2022-10-30T17:52:34;15.30;99.90
34829;DHT22;21042;47.620;12.188;2022-10-30T17:55:01;15.30;99.90
34829;DHT22;21042;47.620;12.188;2022-10-30T17:57:33;15.30;99.90